Time;durP1;ratioP1;P1;durP2;ratioP2;P2;SDS_P1;SDS_P2;PMS_P1;PMS_P2;Temp;Humidity;BMP_temperature;BMP_pressure;BME280_temperature;BME280_humidity;BME280_pressure;Samples;Min_cycle;Max_cycle;Signal;HPM_P1;HPM_P2
2021/06/17 00:02:20;;;;;;;6.87;3.20;;;;;;;20.64;63.32;95326.50;5070380;28;20192;-70
2021/06/17 00:04:46;;;;;;;3.57;3.10;;;;;;;20.78;62.15;95314.63;5069589;28;20198;-70
2021/06/17 00:07:13;;;;;;;5.73;3.90;;;;;;;20.66;62.33;95329.63;5057753;28;20231;-69
2021/06/17 00:09:40;;;;;;;3.90;2.93;;;;;;;20.55;62.55;95321.13;5070618;28;20684;-68
2021/06/17 00:12:08;;;;;;;4.10;2.77;;;;;;;20.32;63.27;95310.84;5057114;28;20446;-68
2021/06/17 00:14:35;;;;;;;3.20;2.87;;;;;;;20.52;62.76;95313.78;5069772;28;20199;-68
2021/06/17 00:17:03;;;;;;;4.37;3.33;;;;;;;20.62;62.45;95321.47;5053189;28;20291;-68
2021/06/17 00:19:31;;;;;;;5.30;2.97;;;;;;;20.67;62.22;95313.38;5065662;28;20575;-67
2021/06/17 00:21:58;;;;;;;3.40;3.10;;;;;;;20.48;62.25;95302.16;5052342;28;20803;-66
2021/06/17 00:24:25;;;;;;;3.30;3.00;;;;;;;20.53;62.30;95312.66;5061856;28;20200;-71
2021/06/17 00:26:52;;;;;;;5.27;3.37;;;;;;;20.64;62.17;95308.66;5050683;28;20205;-70
2021/06/17 00:29:19;;;;;;;3.47;3.17;;;;;;;20.63;62.35;95311.63;5049749;28;20476;-69
2021/06/17 00:31:46;;;;;;;3.83;3.00;;;;;;;20.59;62.02;95290.16;5049981;28;20626;-68
2021/06/17 00:34:14;;;;;;;5.07;2.87;;;;;;;20.55;62.15;95309.69;5063929;28;20287;-69
2021/06/17 00:36:42;;;;;;;3.30;3.03;;;;;;;20.64;61.93;95302.53;5061623;28;20294;-70
2021/06/17 00:39:10;;;;;;;4.97;3.07;;;;;;;20.60;61.78;95281.06;5069827;28;20187;-70
2021/06/17 00:41:38;;;;;;;3.20;2.90;;;;;;;20.91;61.30;95297.00;5070313;28;20203;-68
2021/06/17 00:44:05;;;;;;;4.03;3.00;;;;;;;20.95;61.30;95293.38;5069017;28;20199;-68
2021/06/17 00:46:32;;;;;;;4.90;3.00;;;;;;;20.98;61.24;95287.41;5069942;28;20823;-68
2021/06/17 00:48:59;;;;;;;3.47;2.97;;;;;;;20.95;61.60;95293.38;5069236;28;20219;-68
2021/06/17 00:51:26;;;;;;;3.50;3.20;;;;;;;20.90;61.95;95292.75;5070534;28;20565;-69
2021/06/17 00:53:54;;;;;;;3.30;3.00;;;;;;;20.77;62.32;95283.78;5055352;28;20200;-68
2021/06/17 00:56:23;;;;;;;5.13;3.20;;;;;;;20.69;62.34;95284.53;5070595;28;20426;-67
2021/06/17 00:58:52;;;;;;;4.63;3.03;;;;;;;20.59;62.28;95278.72;5069543;28;20202;-68
2021/06/17 01:01:18;;;;;;;4.13;3.50;;;;;;;20.70;62.31;95283.44;5070391;28;20200;-68
2021/06/17 01:03:45;;;;;;;5.20;3.30;;;;;;;20.68;62.10;95280.31;5069912;28;20442;-68
2021/06/17 01:06:12;;;;;;;6.70;3.57;;;;;;;20.57;62.31;95279.03;5062367;28;20976;-68
2021/06/17 01:09:01;;;;;;;5.03;4.07;;;;;;;20.67;62.08;95275.28;5050647;28;20204;-68
2021/06/17 01:11:54;;;;;;;5.60;3.73;;;;;;;20.67;62.25;95277.97;5063737;28;20989;-68
2021/06/17 01:14:26;;;;;;;6.43;3.83;;;;;;;20.51;62.58;95288.22;5068069;28;20536;-68
2021/06/17 01:17:03;;;;;;;7.57;3.50;;;;;;;20.47;62.95;95281.19;5055312;28;20196;-68
2021/06/17 01:19:30;;;;;;;7.63;3.70;;;;;;;20.31;63.22;95278.13;5059166;28;20196;-68
2021/06/17 01:22:15;;;;;;;6.23;3.80;;;;;;;20.55;62.46;95277.75;5049708;28;20200;-69
2021/06/17 01:24:48;;;;;;;6.87;4.30;;;;;;;20.60;62.53;95281.06;5060312;28;20243;-67
2021/06/17 01:27:35;;;;;;;5.03;4.43;;;;;;;20.50;62.88;95269.91;5065917;28;20218;-67
2021/06/17 01:30:09;;;;;;;15.03;6.53;;;;;;;19.75;65.55;95277.94;5049161;28;20492;-68
2021/06/17 01:32:38;;;;;;;11.63;5.53;;;;;;;19.83;65.54;95274.56;5054769;28;20242;-68
2021/06/17 01:35:08;;;;;;;9.40;4.50;;;;;;;19.84;65.29;95257.50;5056785;28;20451;-68
2021/06/17 01:37:38;;;;;;;11.03;4.60;;;;;;;19.69;65.65;95271.97;5057798;28;20706;-67
2021/06/17 01:40:08;;;;;;;5.50;4.70;;;;;;;20.07;64.82;95272.38;5054562;28;20549;-68
2021/06/17 01:42:40;;;;;;;6.97;4.40;;;;;;;20.18;64.32;95274.47;5061934;28;20542;-68
2021/06/17 01:45:08;;;;;;;5.13;4.10;;;;;;;20.17;63.92;95266.81;5061597;28;20191;-68
2021/06/17 01:47:36;;;;;;;6.77;4.27;;;;;;;20.19;63.94;95264.63;5049569;28;20566;-67
2021/06/17 01:50:06;;;;;;;6.40;4.43;;;;;;;20.20;63.94;95271.50;5048834;28;21007;-67
2021/06/17 01:52:33;;;;;;;7.43;5.17;;;;;;;20.28;63.58;95270.75;5063327;28;20945;-67
2021/06/17 01:55:01;;;;;;;11.10;6.33;;;;;;;19.86;65.03;95260.66;5061132;28;20441;-69
2021/06/17 01:57:29;;;;;;;11.67;6.93;;;;;;;19.86;64.87;95265.97;5058002;28;20430;-68
2021/06/17 01:59:57;;;;;;;9.60;6.13;;;;;;;20.04;64.61;95267.63;5062617;28;20439;-67
2021/06/17 02:02:26;;;;;;;7.47;6.50;;;;;;;20.05;64.00;95269.22;5055776;28;20447;-67
2021/06/17 02:04:54;;;;;;;8.10;6.03;;;;;;;19.81;65.09;95272.22;5063969;28;20434;-68
2021/06/17 02:07:24;;;;;;;7.70;5.70;;;;;;;19.75;65.26;95269.97;5053143;28;20534;-68
2021/06/17 02:09:53;;;;;;;9.40;5.97;;;;;;;19.80;65.10;95267.97;5053043;28;20838;-68
2021/06/17 02:12:20;;;;;;;8.97;5.70;;;;;;;19.73;65.67;95267.63;5073227;28;20222;-69
2021/06/17 02:14:50;;;;;;;8.17;5.70;;;;;;;19.78;64.88;95264.06;5072360;28;20499;-68
2021/06/17 02:17:18;;;;;;;13.03;6.77;;;;;;;19.73;65.28;95266.81;5073143;28;20441;-68
2021/06/17 02:19:48;;;;;;;11.93;6.90;;;;;;;19.69;65.63;95277.28;5072370;28;20529;-68
2021/06/17 02:22:19;;;;;;;12.07;6.60;;;;;;;19.76;64.87;95271.56;5068103;28;20470;-69
2021/06/17 02:24:51;;;;;;;13.70;7.60;;;;;;;19.68;65.35;95277.59;5063844;28;20449;-67
2021/06/17 02:27:26;;;;;;;11.33;6.67;;;;;;;19.62;65.67;95274.25;5058625;28;20426;-68
2021/06/17 02:29:56;;;;;;;11.13;7.20;;;;;;;19.63;65.60;95272.41;5072247;28;20476;-69
2021/06/17 02:32:25;;;;;;;9.47;6.43;;;;;;;19.79;65.12;95265.63;5054393;28;20467;-69
2021/06/17 02:34:54;;;;;;;11.37;6.43;;;;;;;19.88;64.77;95269.13;5063100;28;20525;-69
2021/06/17 02:37:21;;;;;;;10.83;6.83;;;;;;;19.77;65.26;95265.13;5062536;28;20446;-69
2021/06/17 02:39:50;;;;;;;11.63;6.93;;;;;;;19.62;65.92;95270.81;5072087;28;20437;-68
2021/06/17 02:42:19;;;;;;;11.40;7.53;;;;;;;19.06;68.21;95271.28;5067349;28;20439;-68
2021/06/17 02:44:49;;;;;;;14.43;7.70;;;;;;;19.15;67.88;95272.94;5052286;28;20450;-69
2021/06/17 02:47:16;;;;;;;10.43;7.00;;;;;;;19.19;67.31;95279.22;5066098;28;20500;-68
2021/06/17 02:49:43;;;;;;;9.73;6.00;;;;;;;18.89;68.41;95263.94;5062198;28;20482;-70
2021/06/17 02:52:11;;;;;;;6.40;5.40;;;;;;;19.12;66.75;95267.44;5058062;28;20442;-69
2021/06/17 02:54:38;;;;;;;8.67;6.17;;;;;;;19.21;66.97;95278.94;5072029;28;20800;-69
2021/06/17 02:57:32;;;;;;;8.13;5.67;;;;;;;18.91;67.70;95279.56;5072282;28;20481;-68
2021/06/17 03:00:08;;;;;;;7.07;5.10;;;;;;;18.79;68.08;95285.41;5061576;28;20443;-67
2021/06/17 03:02:47;;;;;;;9.73;5.70;;;;;;;18.77;68.19;95287.56;5065899;28;20465;-67
2021/06/17 03:05:43;;;;;;;7.63;5.63;;;;;;;18.69;68.54;95279.50;5059025;28;20442;-68
2021/06/17 03:08:23;;;;;;;9.10;5.93;;;;;;;18.67;68.65;95287.75;5071018;28;20442;-66
2021/06/17 03:10:52;;;;;;;7.97;6.17;;;;;;;18.74;67.99;95293.44;5055549;28;20512;-68
2021/06/17 03:13:26;;;;;;;7.90;6.40;;;;;;;18.84;67.62;95287.16;5065382;28;20434;-68
2021/06/17 03:15:53;;;;;;;14.00;6.57;;;;;;;18.78;67.73;95294.44;5069199;28;20441;-68
2021/06/17 03:18:21;;;;;;;9.63;5.90;;;;;;;18.82;67.31;95284.81;5071403;28;20470;-68
2021/06/17 03:20:50;;;;;;;8.37;5.43;;;;;;;19.16;66.63;95290.44;5057767;28;20441;-68
2021/06/17 03:23:19;;;;;;;9.70;6.10;;;;;;;19.34;65.41;95285.31;5071608;28;20959;-66
2021/06/17 03:25:51;;;;;;;7.80;5.43;;;;;;;19.34;65.49;95301.25;5058013;28;20430;-67
2021/06/17 03:28:18;;;;;;;11.07;6.37;;;;;;;19.54;64.71;95303.47;5072063;28;20966;-69
2021/06/17 03:30:48;;;;;;;10.43;5.53;;;;;;;19.53;64.80;95299.22;5068887;28;20484;-70
2021/06/17 03:33:25;;;;;;;8.97;5.47;;;;;;;19.53;65.46;95300.00;5071134;28;20939;-70
2021/06/17 03:35:53;;;;;;;7.47;5.43;;;;;;;19.58;65.04;95301.78;5059180;28;20524;-69
2021/06/17 03:38:22;;;;;;;10.23;5.90;;;;;;;19.75;64.77;95307.19;5071329;28;20532;-69
2021/06/17 03:40:52;;;;;;;10.00;5.30;;;;;;;19.74;64.77;95306.41;5064017;28;20439;-69
2021/06/17 03:43:21;;;;;;;10.77;5.50;;;;;;;19.70;64.92;95305.47;5068592;28;20453;-68
2021/06/17 03:45:49;;;;;;;10.93;5.87;;;;;;;19.56;65.39;95309.25;5056664;28;20466;-69
2021/06/17 03:48:17;;;;;;;14.87;6.13;;;;;;;19.56;64.97;95295.97;5069669;28;20816;-68
2021/06/17 03:50:46;;;;;;;10.67;5.60;;;;;;;19.72;65.29;95313.13;5066033;28;20478;-69
2021/06/17 03:53:14;;;;;;;10.47;6.27;;;;;;;19.44;65.81;95309.78;5067184;28;20890;-69
2021/06/17 03:55:43;;;;;;;9.23;6.57;;;;;;;19.58;65.77;95317.72;5069945;28;20442;-68
2021/06/17 03:58:10;;;;;;;9.97;6.03;;;;;;;19.53;66.07;95305.31;5069597;28;20438;-69
2021/06/17 04:00:38;;;;;;;7.97;6.27;;;;;;;19.69;66.77;95321.72;5069441;28;20948;-69
2021/06/17 04:03:09;;;;;;;13.13;7.07;;;;;;;19.74;66.23;95305.63;5068987;28;20447;-68
2021/06/17 04:05:37;;;;;;;12.80;6.90;;;;;;;19.79;67.02;95316.94;5066242;28;20534;-68
2021/06/17 04:08:13;;;;;;;12.23;7.70;;;;;;;19.73;66.73;95304.06;5069667;28;20438;-68
2021/06/17 04:10:41;;;;;;;12.50;8.37;;;;;;;19.73;67.17;95320.00;5067254;28;20473;-68
2021/06/17 04:13:11;;;;;;;10.80;8.27;;;;;;;19.87;67.25;95331.38;5067691;28;20430;-68
2021/06/17 04:15:39;;;;;;;13.57;9.33;;;;;;;20.07;66.84;95325.56;5065588;28;20541;-70
2021/06/17 04:18:08;;;;;;;12.40;9.07;;;;;;;20.07;67.27;95325.56;5068266;28;20449;-68
2021/06/17 04:20:40;;;;;;;13.10;10.30;;;;;;;20.20;67.13;95330.03;5068026;28;20481;-68
2021/06/17 04:23:08;;;;;;;13.37;10.73;;;;;;;19.97;67.59;95333.78;5069342;28;20977;-69
2021/06/17 04:25:36;;;;;;;15.40;10.93;;;;;;;20.08;67.43;95337.78;5067515;28;20456;-69
2021/06/17 04:28:04;;;;;;;13.53;11.83;;;;;;;20.17;67.21;95335.97;5069125;28;20438;-68
2021/06/17 04:30:34;;;;;;;16.17;12.27;;;;;;;19.96;67.79;95340.22;5064003;28;20590;-68
2021/06/17 04:33:08;;;;;;;16.67;13.50;;;;;;;20.05;68.06;95338.41;5068845;28;20804;-66
2021/06/17 04:35:36;;;;;;;15.67;11.50;;;;;;;20.04;67.77;95331.47;5065839;28;20467;-68
2021/06/17 04:38:04;;;;;;;21.90;12.93;;;;;;;20.19;67.37;95328.47;5069365;28;20832;-66
2021/06/17 04:40:34;;;;;;;20.00;14.00;;;;;;;20.32;67.08;95327.63;5066884;28;20442;-68
2021/06/17 04:43:02;;;;;;;17.93;14.40;;;;;;;20.44;66.81;95335.81;5068549;28;20199;-68
2021/06/17 04:45:30;;;;;;;24.60;15.40;;;;;;;19.75;67.55;95349.75;5066547;28;20442;-68
2021/06/17 04:47:59;;;;;;;21.63;15.17;;;;;;;19.95;67.04;95350.06;5068796;28;20196;-68
2021/06/17 04:50:27;;;;;;;19.73;15.80;;;;;;;20.11;66.63;95348.59;5068128;28;21128;-68
2021/06/17 04:52:54;;;;;;;20.47;14.77;;;;;;;20.47;65.81;95347.72;5067378;28;20569;-69
2021/06/17 04:55:21;;;;;;;33.20;26.83;;;;;;;20.57;65.61;95347.44;5066618;28;20249;-67
2021/06/17 04:57:48;;;;;;;235.83;206.13;;;;;;;20.70;65.30;95343.91;5067593;28;20245;-69
2021/06/17 05:00:16;;;;;;;71.47;62.13;;;;;;;20.80;65.10;95344.41;5067417;28;20752;-68
2021/06/17 05:02:42;;;;;;;26.23;18.60;;;;;;;20.77;64.62;95344.25;5069030;28;20465;-68
2021/06/17 05:05:10;;;;;;;22.00;17.73;;;;;;;20.62;64.87;95344.69;5065537;28;20434;-68
2021/06/17 05:12:51;;;;;;;25.60;17.43;;;;;;;20.94;64.09;95345.09;5064132;28;20442;-68
2021/06/17 05:15:18;;;;;;;20.83;17.50;;;;;;;20.95;64.67;95344.00;5064464;28;20203;-70
2021/06/17 05:17:46;;;;;;;50.30;43.40;;;;;;;21.00;64.87;95349.22;5068715;28;20286;-71
2021/06/17 05:20:13;;;;;;;56.50;50.13;;;;;;;20.89;65.41;95347.88;5067227;28;20446;-69
2021/06/17 05:22:42;;;;;;;47.10;37.47;;;;;;;20.93;66.14;95348.84;5068359;28;20445;-70
2021/06/17 05:25:10;;;;;;;19.80;17.50;;;;;;;20.86;65.42;95356.50;5066019;28;20218;-73
2021/06/17 05:27:38;;;;;;;23.13;18.50;;;;;;;20.88;67.54;95362.31;5068315;28;20913;-72
2021/06/17 05:30:07;;;;;;;27.27;18.57;;;;;;;20.42;69.13;95359.28;5065451;28;20917;-71
2021/06/17 05:32:34;;;;;;;24.53;19.13;;;;;;;21.17;66.59;95357.25;5066629;28;20292;-69
2021/06/17 05:35:02;;;;;;;28.80;19.27;;;;;;;21.34;65.74;95371.72;5066661;28;20678;-70
2021/06/17 05:37:29;;;;;;;19.67;17.57;;;;;;;21.21;66.44;95369.94;5068410;28;20489;-69
2021/06/17 05:39:55;;;;;;;27.00;19.03;;;;;;;21.41;66.04;95380.03;5067232;28;20963;-68
2021/06/17 05:42:22;;;;;;;24.13;18.67;;;;;;;21.40;66.42;95378.47;5061897;28;20636;-68
2021/06/17 05:44:52;;;;;;;17.73;14.27;;;;;;;20.99;65.60;95382.28;5060650;28;20195;-67
2021/06/17 05:47:20;;;;;;;15.17;13.60;;;;;;;21.22;63.94;95387.53;5067692;28;20294;-67
2021/06/17 05:49:47;;;;;;;17.57;14.07;;;;;;;21.13;65.32;95379.50;5061192;28;20798;-68
2021/06/17 05:52:15;;;;;;;19.07;13.93;;;;;;;21.24;64.86;95374.69;5066063;28;20694;-69
2021/06/17 05:54:42;;;;;;;14.93;13.40;;;;;;;21.41;64.12;95386.16;5064828;28;20813;-68
2021/06/17 05:57:11;;;;;;;19.87;16.50;;;;;;;21.54;63.56;95384.44;5061416;28;20201;-68
2021/06/17 05:59:38;;;;;;;30.33;18.77;;;;;;;21.53;64.17;95390.91;5054932;28;20198;-67
2021/06/17 06:02:06;;;;;;;19.83;17.17;;;;;;;21.55;65.49;95396.69;5069204;28;20195;-69
2021/06/17 06:04:33;;;;;;;22.67;16.67;;;;;;;21.70;64.58;95388.22;5062262;28;20254;-69
2021/06/17 06:07:00;;;;;;;22.87;17.53;;;;;;;21.87;63.48;95377.59;5053802;28;20202;-68
2021/06/17 06:09:27;;;;;;;21.27;16.80;;;;;;;21.73;63.98;95387.63;5066866;28;20558;-68
2021/06/17 06:11:54;;;;;;;18.27;16.07;;;;;;;21.89;62.49;95378.06;5067210;28;20224;-68
2021/06/17 06:14:21;;;;;;;18.93;16.47;;;;;;;21.91;61.42;95394.56;5066777;28;20757;-68
2021/06/17 06:16:50;;;;;;;21.40;15.83;;;;;;;22.10;61.66;95389.66;5068881;28;20215;-68
2021/06/17 06:19:17;;;;;;;19.97;15.87;;;;;;;21.80;62.21;95393.28;5054941;28;20211;-69
2021/06/17 06:21:44;;;;;;;21.43;15.30;;;;;;;21.65;62.09;95388.38;5066753;28;20231;-68
2021/06/17 06:24:11;;;;;;;19.53;14.60;;;;;;;21.49;61.53;95379.28;5060220;28;20195;-68
2021/06/17 06:26:39;;;;;;;19.43;14.93;;;;;;;21.28;61.82;95375.59;5059714;28;20196;-68
2021/06/17 06:29:06;;;;;;;17.37;15.57;;;;;;;21.38;61.66;95378.00;5068252;28;20273;-69
2021/06/17 06:31:32;;;;;;;24.17;14.57;;;;;;;21.69;61.68;95376.00;5067008;28;20347;-69
2021/06/17 06:33:59;;;;;;;19.37;15.63;;;;;;;21.48;61.67;95372.34;5065956;28;20957;-69
2021/06/17 06:36:27;;;;;;;19.53;15.10;;;;;;;21.71;61.24;95384.47;5061137;28;20690;-68
2021/06/17 06:38:54;;;;;;;19.93;14.57;;;;;;;21.92;61.77;95364.09;5067398;28;20205;-68
2021/06/17 06:41:21;;;;;;;18.63;14.10;;;;;;;22.36;59.98;95379.75;5068697;28;20698;-68
2021/06/17 06:43:48;;;;;;;16.97;15.17;;;;;;;22.39;59.97;95381.00;5057324;28;20247;-69
2021/06/17 06:46:16;;;;;;;19.57;14.50;;;;;;;22.38;60.69;95388.22;5065187;28;20208;-67
2021/06/17 06:48:43;;;;;;;21.97;14.77;;;;;;;22.28;60.25;95383.22;5061294;28;20226;-68
2021/06/17 06:51:10;;;;;;;18.30;14.77;;;;;;;22.34;60.87;95379.28;5072349;28;20219;-67
2021/06/17 06:53:37;;;;;;;21.90;15.73;;;;;;;22.66;60.51;95372.63;5061114;28;20218;-68
2021/06/17 06:56:04;;;;;;;20.17;15.80;;;;;;;22.81;59.93;95380.91;5071664;28;20192;-68
2021/06/17 06:58:31;;;;;;;18.03;14.97;;;;;;;22.85;60.64;95381.03;5070049;28;20204;-66
2021/06/17 07:00:58;;;;;;;26.87;16.53;;;;;;;22.95;61.31;95381.50;5059309;28;20210;-67
2021/06/17 07:03:25;;;;;;;20.83;16.53;;;;;;;23.12;60.33;95381.41;5071313;28;20230;-67
2021/06/17 07:05:52;;;;;;;20.93;16.30;;;;;;;23.24;59.12;95383.38;5071186;28;20669;-66
2021/06/17 07:08:19;;;;;;;21.10;16.90;;;;;;;23.21;59.04;95388.59;5055966;28;20208;-67
2021/06/17 07:10:48;;;;;;;22.47;16.70;;;;;;;22.86;58.27;95377.28;5059775;28;20772;-68
2021/06/17 07:13:16;;;;;;;22.73;18.70;;;;;;;22.95;59.28;95370.81;5056931;28;20224;-67
2021/06/17 07:15:43;;;;;;;26.60;19.57;;;;;;;23.00;60.51;95378.63;5051436;28;20591;-67
2021/06/17 07:18:11;;;;;;;27.80;18.70;;;;;;;23.35;60.48;95378.47;5065139;28;20192;-68
2021/06/17 07:20:40;;;;;;;30.53;20.27;;;;;;;23.08;60.49;95385.03;5065561;28;20536;-67
2021/06/17 07:23:07;;;;;;;29.07;20.20;;;;;;;23.53;59.45;95385.28;5063336;28;20199;-67
2021/06/17 07:25:34;;;;;;;27.63;19.27;;;;;;;23.59;58.60;95378.66;5057246;28;20191;-67
2021/06/17 07:28:02;;;;;;;29.53;19.40;;;;;;;23.66;58.69;95389.59;5071562;28;20199;-68
2021/06/17 07:30:29;;;;;;;29.10;19.63;;;;;;;23.54;59.15;95376.94;5062908;28;20304;-68
2021/06/17 07:32:56;;;;;;;24.20;18.60;;;;;;;23.57;59.69;95381.66;5072567;28;20228;-68
2021/06/17 07:35:24;;;;;;;23.57;16.23;;;;;;;23.55;59.55;95383.06;5070552;28;20225;-67
2021/06/17 07:37:51;;;;;;;22.30;16.93;;;;;;;23.65;57.84;95383.47;5071810;28;20200;-68
2021/06/17 07:40:18;;;;;;;21.47;15.77;;;;;;;23.65;58.57;95382.72;5070658;28;20192;-67
2021/06/17 07:42:47;;;;;;;20.93;14.03;;;;;;;23.85;56.81;95371.19;5071327;28;20196;-67
2021/06/17 07:45:14;;;;;;;19.43;13.23;;;;;;;23.80;56.67;95369.50;5070321;28;20227;-68
2021/06/17 07:47:42;;;;;;;18.37;11.30;;;;;;;23.90;56.09;95374.44;5070337;28;20216;-68
2021/06/17 07:50:10;;;;;;;21.03;11.70;;;;;;;24.18;54.89;95366.69;5070533;28;20298;-67
2021/06/17 07:52:38;;;;;;;22.67;12.20;;;;;;;23.98;55.14;95365.56;5056647;28;20207;-68
2021/06/17 07:55:06;;;;;;;18.17;11.43;;;;;;;24.22;54.12;95359.56;5070717;28;20213;-70
2021/06/17 07:57:34;;;;;;;23.60;10.43;;;;;;;24.39;52.93;95372.81;5071262;28;20184;-67
2021/06/17 08:00:01;;;;;;;16.40;9.60;;;;;;;23.84;52.29;95375.78;5059236;28;20205;-67
2021/06/17 08:02:35;;;;;;;13.43;10.37;;;;;;;23.99;52.59;95377.09;5064478;28;20208;-69
2021/06/17 08:05:03;;;;;;;24.23;10.40;;;;;;;23.90;51.64;95352.28;5063418;28;20193;-67
2021/06/17 08:07:30;;;;;;;13.27;9.60;;;;;;;24.16;52.74;95362.78;5059829;28;20700;-67
2021/06/17 08:09:57;;;;;;;18.77;10.00;;;;;;;24.64;52.52;95371.75;5054548;28;20308;-68
2021/06/17 08:12:26;;;;;;;13.10;8.80;;;;;;;24.97;52.33;95375.16;5058128;28;20223;-67
2021/06/17 08:14:54;;;;;;;12.97;7.03;;;;;;;24.99;50.72;95359.53;5068633;28;20207;-68
2021/06/17 08:17:20;;;;;;;11.43;5.90;;;;;;;25.11;49.06;95363.34;5050589;28;20262;-68
2021/06/17 08:19:47;;;;;;;6.83;5.30;;;;;;;25.24;49.11;95362.19;5050102;28;20231;-68
2021/06/17 08:22:14;;;;;;;8.63;5.10;;;;;;;25.24;47.53;95362.19;5054537;28;20527;-67
2021/06/17 08:24:43;;;;;;;11.47;5.17;;;;;;;25.16;46.75;95355.84;5069642;28;20621;-67
2021/06/17 08:27:11;;;;;;;6.33;5.20;;;;;;;25.09;46.48;95351.03;5070107;28;20283;-68
2021/06/17 08:29:38;;;;;;;7.90;4.90;;;;;;;25.12;47.21;95354.16;5070114;28;20306;-69
2021/06/17 08:32:05;;;;;;;8.63;5.03;;;;;;;25.45;47.38;95346.78;5069100;28;20254;-68
2021/06/17 08:34:32;;;;;;;6.07;4.73;;;;;;;25.58;47.31;95341.03;5069700;28;20196;-67
2021/06/17 08:37:00;;;;;;;7.33;4.53;;;;;;;25.87;47.27;95345.34;5059171;28;20524;-67
2021/06/17 08:39:28;;;;;;;7.90;3.47;;;;;;;25.73;41.95;95334.22;5069612;28;20283;-69
2021/06/17 08:41:59;;;;;;;7.10;3.20;;;;;;;25.77;41.99;95343.91;5068023;28;20266;-66
2021/06/17 08:44:28;;;;;;;5.43;3.63;;;;;;;25.96;43.69;95346.00;5058108;28;20199;-67
2021/06/17 08:46:58;;;;;;;7.87;3.30;;;;;;;26.50;44.05;95338.25;5068684;28;20199;-70
2021/06/17 08:49:27;;;;;;;6.47;4.50;;;;;;;26.49;43.39;95342.88;5069638;28;20192;-68
2021/06/17 08:51:57;;;;;;;5.23;3.50;;;;;;;26.32;42.10;95337.78;5056457;28;20227;-68
2021/06/17 08:54:25;;;;;;;5.50;3.20;;;;;;;26.04;41.13;95332.44;5054724;28;20196;-68
2021/06/17 08:56:53;;;;;;;4.37;3.40;;;;;;;26.14;43.14;95336.53;5069814;28;20574;-69
2021/06/17 08:59:29;;;;;;;5.77;3.40;;;;;;;26.11;44.45;95331.88;5062939;28;20200;-68
2021/06/17 09:02:03;;;;;;;4.80;3.73;;;;;;;26.19;44.40;95333.59;5062396;28;20644;-68
2021/06/17 09:04:31;;;;;;;4.70;3.67;;;;;;;26.38;44.12;95319.50;5054459;28;20680;-66
2021/06/17 09:07:12;;;;;;;7.20;3.90;;;;;;;26.45;42.46;95320.47;5062919;28;20191;-67
2021/06/17 09:09:44;;;;;;;6.47;3.50;;;;;;;26.79;43.02;95316.34;5061682;28;20549;-67
2021/06/17 09:12:16;;;;;;;5.03;3.83;;;;;;;26.02;42.88;95320.47;5069503;28;20216;-68
2021/06/17 09:15:03;;;;;;;7.70;3.60;;;;;;;26.24;41.91;95322.59;5056392;28;20206;-72
2021/06/17 09:17:30;;;;;;;8.07;3.60;;;;;;;26.44;42.80;95278.59;5054599;28;20188;-74
2021/06/17 09:19:57;;;;;;;7.40;3.77;;;;;;;26.59;40.63;95299.34;5068607;28;20609;-72
2021/06/17 09:22:26;;;;;;;7.63;3.53;;;;;;;26.69;41.65;95306.91;5063337;28;20206;-71
2021/06/17 09:24:55;;;;;;;5.87;3.67;;;;;;;26.35;39.75;95299.47;5054956;28;20278;-73
2021/06/17 09:27:26;;;;;;;3.60;3.30;;;;;;;26.99;39.70;95302.63;5058349;28;20224;-72
2021/06/17 09:30:00;;;;;;;6.17;3.53;;;;;;;27.16;41.17;95295.31;5061736;28;20269;-71
2021/06/17 09:32:29;;;;;;;6.03;3.70;;;;;;;27.37;41.58;95290.47;5058298;28;20255;-72
2021/06/17 09:34:57;;;;;;;9.10;4.87;;;;;;;27.52;40.51;95297.69;5062943;28;20203;-72
2021/06/17 09:37:35;;;;;;;6.43;3.30;;;;;;;27.64;39.89;95279.50;5066380;28;20638;-74
2021/06/17 09:40:26;;;;;;;7.53;3.50;;;;;;;27.16;38.69;95287.25;5068825;28;20688;-70
2021/06/17 09:43:15;;;;;;;5.77;3.00;;;;;;;27.59;38.55;95293.22;5069533;28;20184;-73
2021/06/17 09:45:52;;;;;;;5.80;3.40;;;;;;;27.70;39.33;95282.69;5068563;28;20195;-72
2021/06/17 09:48:31;;;;;;;4.10;3.10;;;;;;;27.16;37.12;95287.25;5069650;28;20203;-71
2021/06/17 09:50:58;;;;;;;4.37;3.37;;;;;;;27.24;37.19;95281.69;5069339;28;20206;-73
2021/06/17 09:53:27;;;;;;;4.00;2.50;;;;;;;27.17;36.46;95280.75;5069710;28;20199;-71
2021/06/17 09:55:54;;;;;;;6.13;3.10;;;;;;;27.38;37.92;95286.63;5068019;28;20202;-73
2021/06/17 09:58:36;;;;;;;4.63;2.60;;;;;;;27.19;35.07;95286.56;5069732;28;20192;-72
2021/06/17 10:01:05;;;;;;;4.27;2.80;;;;;;;27.85;35.92;95279.13;5055502;28;20223;-72
2021/06/17 10:03:32;;;;;;;4.37;3.00;;;;;;;27.18;35.31;95279.63;5069558;28;20192;-74
2021/06/17 10:06:00;;;;;;;5.40;2.70;;;;;;;27.46;35.23;95277.56;5060010;28;20222;-73
2021/06/17 10:08:28;;;;;;;7.53;3.50;;;;;;;27.65;37.06;95272.97;5066465;28;20193;-72
2021/06/17 10:10:55;;;;;;;6.97;2.97;;;;;;;27.85;36.76;95258.38;5049247;28;20264;-71
2021/06/17 10:13:26;;;;;;;6.27;3.03;;;;;;;28.07;36.03;95258.78;5049317;28;20285;-72
2021/06/17 10:15:53;;;;;;;5.47;3.03;;;;;;;27.85;36.93;95257.59;5057872;28;20757;-73
2021/06/17 10:18:20;;;;;;;9.00;3.40;;;;;;;27.94;36.83;95255.47;5072269;28;20577;-71
2021/06/17 10:20:49;;;;;;;5.80;3.30;;;;;;;28.19;35.95;95262.13;5059840;28;20283;-71
2021/06/17 10:23:20;;;;;;;10.87;3.23;;;;;;;28.56;35.74;95255.09;5071990;28;20689;-72
2021/06/17 10:25:48;;;;;;;7.03;2.90;;;;;;;28.49;33.69;95263.03;5052931;28;20197;-74
2021/06/17 10:28:37;;;;;;;5.73;3.13;;;;;;;28.71;34.50;95262.28;5065329;28;20281;-74
2021/06/17 10:31:04;;;;;;;5.23;3.60;;;;;;;28.67;35.07;95255.25;5073815;28;20192;-75
2021/06/17 10:33:36;;;;;;;7.43;2.97;;;;;;;28.50;32.94;95253.03;5060604;28;20204;-72
2021/06/17 10:36:25;;;;;;;5.23;3.20;;;;;;;29.21;34.22;95252.25;5053989;28;20197;-73
2021/06/17 10:39:10;;;;;;;3.73;2.60;;;;;;;28.86;32.62;95255.97;5071351;28;20215;-77
2021/06/17 10:41:46;;;;;;;8.20;3.10;;;;;;;29.05;33.02;95254.31;5071804;28;20212;-70
2021/06/17 10:44:41;;;;;;;6.53;3.13;;;;;;;29.04;32.72;95241.94;5052486;28;20196;-73
2021/06/17 10:47:08;;;;;;;7.53;3.00;;;;;;;29.41;33.71;95245.59;5068116;28;20297;-73
2021/06/17 10:49:50;;;;;;;5.90;3.63;;;;;;;29.94;36.11;95236.22;5073275;28;20608;-73
2021/06/17 10:52:26;;;;;;;4.17;3.40;;;;;;;29.74;37.02;95234.84;5058364;28;20600;-75
2021/06/17 10:55:01;;;;;;;3.60;3.20;;;;;;;29.88;36.02;95226.88;5062236;28;20285;-73
2021/06/17 11:00:26;;;;;;;9.23;3.30;;;;;;;29.61;36.77;95228.88;5060518;28;20202;-74
2021/06/17 11:03:04;;;;;;;4.37;3.00;;;;;;;29.73;35.08;95215.16;5060591;28;20279;-74
2021/06/17 11:05:34;;;;;;;7.90;3.03;;;;;;;29.64;34.58;95228.13;5065173;28;20184;-73
2021/06/17 11:08:19;;;;;;;7.80;3.30;;;;;;;30.02;35.19;95221.63;5067202;28;20200;-73
2021/06/17 11:10:50;;;;;;;5.23;3.30;;;;;;;30.27;35.25;95211.88;5071761;28;20223;-75
2021/06/17 11:13:34;;;;;;;5.03;3.63;;;;;;;30.59;35.45;95204.81;5072370;28;20298;-73
2021/06/17 11:16:05;;;;;;;7.07;3.27;;;;;;;30.60;34.40;95203.63;5072423;28;20544;-71
2021/06/17 11:18:41;;;;;;;5.63;3.53;;;;;;;30.32;36.40;95213.44;5072977;28;20289;-75
2021/06/17 11:21:23;;;;;;;9.23;3.70;;;;;;;30.50;37.60;95208.97;5071065;28;20568;-74
2021/06/17 11:23:55;;;;;;;7.07;4.37;;;;;;;30.39;37.20;95219.69;5071916;28;20192;-74
2021/06/17 11:26:41;;;;;;;7.07;3.77;;;;;;;30.53;36.22;95197.41;5062756;28;20744;-75
2021/06/17 11:29:34;;;;;;;10.03;4.33;;;;;;;30.30;36.92;95216.53;5069181;28;20678;-74
2021/06/17 11:32:03;;;;;;;6.00;3.63;;;;;;;29.98;37.09;95215.44;5070986;28;20316;-73
2021/06/17 11:34:31;;;;;;;7.23;3.67;;;;;;;30.46;36.79;95203.53;5059082;28;20196;-73
2021/06/17 11:37:02;;;;;;;4.97;3.10;;;;;;;29.97;35.77;95203.03;5061262;28;20210;-74
2021/06/17 11:39:33;;;;;;;6.80;3.40;;;;;;;30.32;35.45;95208.03;5068355;28;20207;-71
2021/06/17 11:42:03;;;;;;;5.30;3.10;;;;;;;30.68;34.57;95205.25;5068207;28;20548;-74
2021/06/17 11:44:32;;;;;;;4.83;3.10;;;;;;;30.87;34.01;95190.72;5061208;28;20196;-76
2021/06/17 11:47:07;;;;;;;6.07;3.57;;;;;;;30.64;35.23;95190.91;5066525;28;20222;-71
2021/06/17 11:49:37;;;;;;;5.77;3.30;;;;;;;30.14;34.20;95186.25;5071584;28;20688;-74